Time;durP1;ratioP1;P1;durP2;ratioP2;P2;SDS_P1;SDS_P2;PMS_P1;PMS_P2;Temp;Humidity;BMP_temperature;BMP_pressure;BME280_temperature;BME280_humidity;BME280_pressure;Samples;Min_cycle;Max_cycle;Signal;HPM_P1;HPM_P2
2022/11/06 00:00:28;;;;;;;3.07;2.70;;;;;;;8.85;75.17;100990.34;4979363;28;20204;-79
2022/11/06 00:02:57;;;;;;;2.63;2.43;;;;;;;8.78;75.59;100992.97;4979277;28;20227;-80
2022/11/06 00:08:09;;;;;;;2.93;2.30;;;;;;;8.75;75.53;100984.31;4979196;28;20721;-80
2022/11/06 00:10:35;;;;;;;3.10;2.73;;;;;;;8.83;75.72;100973.88;4978568;28;20223;-81
2022/11/06 00:13:02;;;;;;;2.93;2.17;;;;;;;8.67;76.43;100964.38;4978423;28;20232;-80
2022/11/06 00:15:28;;;;;;;4.30;2.40;;;;;;;8.80;75.81;100950.47;4978724;28;20717;-79
2022/11/06 00:17:55;;;;;;;3.27;2.00;;;;;;;8.87;76.19;100956.50;4979437;28;20208;-79
2022/11/06 00:20:21;;;;;;;3.07;2.10;;;;;;;8.85;75.71;100961.72;4979151;28;20220;-80
2022/11/06 00:22:48;;;;;;;2.57;2.33;;;;;;;8.83;76.40;100957.41;4978510;28;20294;-81
2022/11/06 00:25:16;;;;;;;2.57;1.83;;;;;;;8.88;76.58;100937.41;4979015;28;20231;-82
2022/11/06 00:27:42;;;;;;;3.00;2.63;;;;;;;8.94;76.14;100940.88;4984183;28;20220;-82
2022/11/06 00:30:10;;;;;;;2.30;2.10;;;;;;;9.01;76.11;100936.47;4998022;28;20207;-82
2022/11/06 00:32:36;;;;;;;2.97;1.97;;;;;;;8.92;75.80;100947.81;4998200;28;20254;-81
2022/11/06 00:35:04;;;;;;;3.03;2.20;;;;;;;9.04;75.81;100940.81;4998425;28;20211;-80
2022/11/06 00:37:30;;;;;;;2.87;2.37;;;;;;;8.98;75.81;100946.94;4998406;28;20215;-81
2022/11/06 00:39:58;;;;;;;2.80;2.40;;;;;;;8.82;75.97;100951.34;4997630;28;20209;-80
2022/11/06 00:42:26;;;;;;;2.97;2.13;;;;;;;8.79;75.82;100940.91;4999040;28;20232;-80
2022/11/06 00:44:52;;;;;;;3.43;2.63;;;;;;;8.86;76.04;100941.75;4998877;28;20578;-80
2022/11/06 00:47:19;;;;;;;2.30;2.10;;;;;;;8.74;75.92;100943.53;4998520;28;20230;-79
2022/11/06 00:49:45;;;;;;;2.50;2.30;;;;;;;8.77;76.13;100939.19;4998967;28;20211;-81
2022/11/06 00:52:12;;;;;;;2.20;1.80;;;;;;;8.79;76.43;100938.31;4998365;28;20273;-80
2022/11/06 00:54:38;;;;;;;2.97;2.30;;;;;;;8.81;75.84;100939.19;4998980;28;20226;-81
2022/11/06 00:57:05;;;;;;;4.30;2.47;;;;;;;8.82;75.85;100948.72;4999453;28;20208;-80
2022/11/06 00:59:33;;;;;;;3.60;2.40;;;;;;;8.80;76.25;100944.38;4998524;28;20235;-80
2022/11/06 01:02:00;;;;;;;3.27;2.20;;;;;;;8.86;76.18;100932.22;4998473;28;20213;-81
2022/11/06 01:04:26;;;;;;;3.03;2.07;;;;;;;8.86;76.00;100937.44;4999110;28;20211;-81
2022/11/06 01:06:55;;;;;;;4.80;2.50;;;;;;;8.77;76.82;100932.25;4998363;28;20355;-81
2022/11/06 01:09:27;;;;;;;2.90;2.30;;;;;;;8.67;76.61;100913.19;4997654;28;20208;-80
2022/11/06 01:11:55;;;;;;;5.03;2.47;;;;;;;8.74;77.63;100891.50;4998331;28;20199;-82
2022/11/06 01:14:23;;;;;;;2.20;1.93;;;;;;;8.72;76.45;100882.81;4998531;28;20238;-80
2022/11/06 01:16:51;;;;;;;2.73;2.53;;;;;;;8.72;76.52;100893.22;4997776;28;20211;-79
2022/11/06 01:19:20;;;;;;;3.93;2.13;;;;;;;8.71;76.75;100894.09;4998069;28;20207;-81
2022/11/06 01:21:48;;;;;;;2.83;2.53;;;;;;;8.60;76.00;100915.81;4997579;28;20215;-80
2022/11/06 01:24:17;;;;;;;2.50;2.30;;;;;;;8.68;76.42;100929.66;4998335;28;20231;-81
2022/11/06 01:26:44;;;;;;;3.73;2.30;;;;;;;8.75;75.89;100945.25;4998123;28;20230;-80
2022/11/06 01:29:13;;;;;;;5.43;3.73;;;;;;;8.84;75.52;100949.59;4998073;28;20234;-80
2022/11/06 01:31:40;;;;;;;3.33;2.73;;;;;;;8.74;75.62;100959.16;4997483;28;20204;-81
2022/11/06 01:34:10;;;;;;;3.83;2.43;;;;;;;8.82;75.93;100955.66;4998008;28;20231;-81
2022/11/06 01:36:36;;;;;;;3.73;2.50;;;;;;;8.83;75.51;100960.84;4998644;28;20204;-80
2022/11/06 01:39:05;;;;;;;2.80;2.47;;;;;;;8.89;75.85;100960.84;4998159;28;20211;-81
2022/11/06 01:41:34;;;;;;;3.00;2.50;;;;;;;8.90;76.12;100946.06;4997918;28;20211;-82
2022/11/06 01:44:02;;;;;;;4.40;2.60;;;;;;;8.93;75.45;100949.53;4997713;28;20229;-80
2022/11/06 01:46:31;;;;;;;3.00;2.80;;;;;;;8.81;75.87;100953.94;4997561;28;20206;-80
2022/11/06 01:49:00;;;;;;;6.60;2.87;;;;;;;8.85;76.36;100935.69;4998070;28;20262;-83
2022/11/06 01:51:31;;;;;;;4.17;2.73;;;;;;;8.91;76.94;100917.44;4997042;28;20681;-82
2022/11/06 01:53:58;;;;;;;4.00;2.37;;;;;;;8.92;77.27;100900.97;4998038;28;20247;-78
2022/11/06 01:56:25;;;;;;;2.87;2.60;;;;;;;8.96;76.89;100896.59;4997007;28;20203;-79
2022/11/06 01:58:55;;;;;;;5.03;2.77;;;;;;;8.88;75.85;100911.38;4997114;28;20208;-79
2022/11/06 02:01:22;;;;;;;3.07;2.70;;;;;;;8.85;75.72;100930.47;4997736;28;20694;-79
2022/11/06 02:03:55;;;;;;;4.93;2.73;;;;;;;8.87;76.23;100909.66;4998219;28;20227;-81
2022/11/06 02:06:21;;;;;;;4.30;3.00;;;;;;;8.90;75.80;100917.44;4998625;28;20208;-79
2022/11/06 02:08:49;;;;;;;3.80;3.00;;;;;;;8.86;75.73;100920.91;4996657;28;20224;-79
2022/11/06 02:11:15;;;;;;;5.13;3.03;;;;;;;8.79;75.32;100930.50;4996252;28;20207;-78
2022/11/06 02:13:53;;;;;;;5.27;4.23;;;;;;;8.60;75.53;100947.91;4998524;28;20219;-80
2022/11/06 02:16:26;;;;;;;4.53;3.07;;;;;;;8.62;76.40;100927.97;4997916;28;20207;-78
2022/11/06 02:19:07;;;;;;;3.50;2.70;;;;;;;8.65;76.86;100904.53;4997623;28;20684;-79
2022/11/06 02:21:54;;;;;;;3.53;3.23;;;;;;;8.66;76.04;100908.00;4996620;28;20231;-78
2022/11/06 02:24:59;;;;;;;5.43;3.10;;;;;;;8.63;76.20;100915.81;4995031;28;20258;-79
2022/11/06 02:27:29;;;;;;;3.33;2.77;;;;;;;8.75;76.01;100919.22;4956910;28;20363;-78
2022/11/06 02:30:00;;;;;;;3.83;3.43;;;;;;;8.75;75.92;100918.38;4994606;28;20706;-78
2022/11/06 02:32:32;;;;;;;3.63;3.33;;;;;;;8.59;76.40;100909.75;4996643;28;20254;-80
2022/11/06 02:35:04;;;;;;;4.60;3.30;;;;;;;8.50;76.91;100899.38;4997135;28;20626;-81
2022/11/06 02:37:36;;;;;;;4.37;3.53;;;;;;;8.46;77.35;100882.94;4995744;28;20207;-82
2022/11/06 02:40:09;;;;;;;5.50;3.40;;;;;;;8.50;77.56;100863.84;4996678;28;20875;-78
2022/11/06 02:42:40;;;;;;;3.37;3.07;;;;;;;8.57;77.36;100848.19;4999841;28;21841;-79
2022/11/06 02:45:11;;;;;;;6.00;3.93;;;;;;;8.47;77.32;100850.81;4997289;28;20216;-78
2022/11/06 02:47:39;;;;;;;4.70;3.90;;;;;;;8.56;77.38;100836.91;4998157;28;20914;-79
2022/11/06 02:50:10;;;;;;;3.27;3.07;;;;;;;8.62;77.43;100839.50;4997872;28;20195;-78
2022/11/06 02:52:41;;;;;;;3.57;3.27;;;;;;;8.68;77.40;100839.47;4997380;28;20271;-79
2022/11/06 02:55:10;;;;;;;6.50;3.67;;;;;;;8.75;77.21;100830.75;4997528;28;20921;-81
2022/11/06 02:57:43;;;;;;;5.07;4.20;;;;;;;8.75;77.15;100843.75;4998192;28;20678;-79
2022/11/06 03:00:12;;;;;;;6.40;4.30;;;;;;;8.75;77.17;100842.91;4998258;28;20204;-79
2022/11/06 03:02:44;;;;;;;4.50;3.70;;;;;;;8.81;76.64;100849.81;4998447;28;20717;-80
2022/11/06 03:05:16;;;;;;;4.00;3.60;;;;;;;8.78;76.79;100855.91;4999125;28;20204;-79
2022/11/06 03:07:47;;;;;;;4.03;3.60;;;;;;;8.71;76.83;100864.59;4998619;28;20353;-81
2022/11/06 03:10:13;;;;;;;5.10;3.53;;;;;;;8.72;76.77;100874.13;4998548;28;20207;-80
2022/11/06 03:12:51;;;;;;;5.57;3.67;;;;;;;8.69;76.91;100874.16;4999430;28;20229;-80
2022/11/06 03:15:33;;;;;;;4.00;3.60;;;;;;;8.65;77.08;100868.09;4998896;28;20222;-80
2022/11/06 03:18:08;;;;;;;5.63;4.17;;;;;;;8.40;77.66;100869.03;4999130;28;20207;-80
2022/11/06 03:20:39;;;;;;;5.87;4.03;;;;;;;8.45;77.71;100828.28;4999013;28;20207;-79
2022/11/06 03:23:13;;;;;;;3.87;3.50;;;;;;;8.57;77.45;100820.44;4999228;28;20241;-79
2022/11/06 03:25:46;;;;;;;7.70;3.80;;;;;;;8.57;77.61;100824.78;4998547;28;20218;-79
2022/11/06 03:28:23;;;;;;;3.73;3.43;;;;;;;8.52;77.28;100828.25;4998411;28;20242;-80
2022/11/06 03:30:54;;;;;;;4.40;3.43;;;;;;;8.52;77.97;100814.38;4998559;28;20877;-79
2022/11/06 03:33:27;;;;;;;4.17;3.73;;;;;;;8.48;78.20;100800.53;4998483;28;20231;-78
2022/11/06 03:36:00;;;;;;;4.53;3.70;;;;;;;8.43;77.67;100797.06;4997759;28;20215;-80
2022/11/06 03:38:30;;;;;;;4.50;3.70;;;;;;;8.46;77.98;100791.88;4998846;28;20573;-79
2022/11/06 03:41:00;;;;;;;4.17;3.73;;;;;;;8.47;77.96;100798.78;4998279;28;20215;-78
2022/11/06 03:43:30;;;;;;;4.40;3.47;;;;;;;8.44;77.79;100788.38;4999066;28;20259;-79
2022/11/06 03:45:59;;;;;;;4.47;3.67;;;;;;;8.42;77.87;100789.28;4998371;28;20219;-79
2022/11/06 03:48:31;;;;;;;4.57;3.60;;;;;;;8.43;77.78;100797.06;4997759;28;20227;-80
2022/11/06 03:51:02;;;;;;;4.47;4.07;;;;;;;8.18;78.26;100796.25;4997818;28;20575;-80
2022/11/06 03:53:35;;;;;;;3.97;3.60;;;;;;;8.18;78.85;100772.84;4999422;28;20235;-78
2022/11/06 03:56:05;;;;;;;4.33;3.93;;;;;;;8.21;78.31;100767.66;4999364;28;20234;-80
2022/11/06 03:58:38;;;;;;;4.83;3.87;;;;;;;8.12;78.90;100762.47;4998898;28;20231;-79
2022/11/06 04:01:08;;;;;;;6.37;4.07;;;;;;;8.10;79.38;100733.88;4999445;28;20281;-81
2022/11/06 04:03:37;;;;;;;3.83;3.53;;;;;;;8.09;79.11;100729.56;4999178;28;20227;-80
2022/11/06 04:06:11;;;;;;;4.47;4.07;;;;;;;8.17;79.12;100721.75;4997534;28;20215;-80
2022/11/06 04:14:15;;;;;;;3.77;3.47;;;;;;;8.20;78.61;100736.47;4998976;28;20221;-81
2022/11/06 04:16:46;;;;;;;4.23;3.60;;;;;;;8.21;78.48;100743.41;4998677;28;20697;-80
2022/11/06 04:19:15;;;;;;;5.03;3.77;;;;;;;8.22;78.64;100750.31;4999336;28;20670;-79
2022/11/06 04:22:07;;;;;;;5.17;3.90;;;;;;;8.09;78.94;100765.97;4998594;28;20211;-82
2022/11/06 04:27:38;;;;;;;4.13;3.47;;;;;;;8.09;79.43;100729.56;4997754;28;20209;-79
2022/11/06 04:30:09;;;;;;;3.40;3.10;;;;;;;8.13;78.97;100736.47;4998045;28;20698;-81
2022/11/06 04:32:59;;;;;;;6.43;4.13;;;;;;;8.11;79.21;100730.44;4997460;28;20598;-81
2022/11/06 04:35:33;;;;;;;6.37;3.63;;;;;;;8.14;79.52;100717.41;4998563;28;20686;-80
2022/11/06 04:38:07;;;;;;;3.50;3.20;;;;;;;8.13;79.45;100726.09;4998139;28;20215;-81
2022/11/06 04:40:43;;;;;;;4.00;3.40;;;;;;;8.19;79.26;100734.75;4997717;28;20690;-80
2022/11/06 04:43:16;;;;;;;4.07;3.40;;;;;;;8.11;78.83;100737.38;4997616;28;20231;-79
2022/11/06 04:45:49;;;;;;;3.80;3.50;;;;;;;8.10;78.97;100736.47;4998021;28;20218;-81
2022/11/06 04:48:17;;;;;;;4.87;3.40;;;;;;;8.16;79.14;100733.84;4997646;28;20729;-80
2022/11/06 04:50:48;;;;;;;7.03;4.00;;;;;;;8.19;78.77;100730.41;4997203;28;20200;-80
2022/11/06 04:53:18;;;;;;;7.93;3.77;;;;;;;8.22;79.47;100739.91;4997331;28;20259;-79
2022/11/06 04:55:47;;;;;;;4.70;3.70;;;;;;;8.22;79.56;100726.91;4998105;28;20642;-81
2022/11/06 04:58:13;;;;;;;5.50;3.23;;;;;;;8.07;79.55;100733.91;4998586;28;20204;-79
2022/11/06 05:00:43;;;;;;;4.60;4.07;;;;;;;8.07;79.58;100713.13;4997959;28;20215;-81
2022/11/06 05:03:11;;;;;;;5.23;3.60;;;;;;;8.18;79.49;100712.19;4998081;28;20250;-80
2022/11/06 05:05:37;;;;;;;7.57;4.20;;;;;;;8.25;79.48;100704.38;4997571;28;20204;-80
2022/11/06 05:08:04;;;;;;;5.57;4.23;;;;;;;8.18;80.18;100701.78;4997851;28;20212;-82
2022/11/06 05:10:31;;;;;;;4.20;3.80;;;;;;;8.28;79.30;100701.72;4997203;28;20207;-80
2022/11/06 05:12:57;;;;;;;5.50;3.97;;;;;;;8.22;79.64;100699.16;4998105;28;20230;-82
2022/11/06 05:15:23;;;;;;;7.20;4.27;;;;;;;8.28;79.90;100711.28;4997788;28;20678;-81
2022/11/06 05:17:50;;;;;;;5.03;3.90;;;;;;;8.20;79.33;100713.06;4997921;28;20207;-81
2022/11/06 05:20:18;;;;;;;5.40;3.77;;;;;;;8.21;80.08;100705.25;4997892;28;20211;-82
2022/11/06 05:22:59;;;;;;;4.67;4.23;;;;;;;8.29;79.74;100706.06;4998506;28;20232;-81
2022/11/06 05:25:27;;;;;;;4.60;4.03;;;;;;;8.32;79.81;100703.47;4998664;28;20210;-81
2022/11/06 05:27:53;;;;;;;4.77;3.70;;;;;;;8.35;79.70;100715.59;4998385;28;20207;-82
2022/11/06 05:30:20;;;;;;;4.20;3.90;;;;;;;8.17;79.38;100716.53;4998200;28;20834;-81
2022/11/06 05:32:46;;;;;;;4.00;3.60;;;;;;;8.21;79.07;100713.06;4998158;28;20718;-81
2022/11/06 05:35:13;;;;;;;6.77;4.20;;;;;;;8.26;78.96;100718.22;4998297;28;20203;-81
2022/11/06 05:37:41;;;;;;;4.37;3.97;;;;;;;8.23;78.72;100716.50;4998221;28;20211;-81
2022/11/06 05:40:08;;;;;;;3.90;3.50;;;;;;;8.30;79.25;100712.13;4997544;28;20578;-81
2022/11/06 05:42:34;;;;;;;5.20;4.27;;;;;;;8.24;79.59;100720.81;4998871;28;20279;-81
2022/11/06 05:45:01;;;;;;;5.67;4.47;;;;;;;8.20;78.87;100720.84;4998384;28;20215;-81
2022/11/06 05:47:27;;;;;;;7.60;4.20;;;;;;;8.17;79.53;100706.13;4998711;28;20204;-81
2022/11/06 05:49:53;;;;;;;4.67;4.27;;;;;;;8.29;79.13;100687.00;4999267;28;20245;-81
2022/11/06 05:54:55;;;;;;;5.03;4.53;;;;;;;8.27;79.10;100691.34;5033224;23;20245;-80
2022/11/06 05:57:22;;;;;;;5.73;4.17;;;;;;;8.29;79.01;100685.25;5014129;28;20219;-78
2022/11/06 05:59:48;;;;;;;5.00;4.47;;;;;;;8.38;79.06;100684.34;5013856;28;20200;-78
2022/11/06 06:02:15;;;;;;;5.80;4.13;;;;;;;8.38;79.45;100684.34;5013461;28;20273;-78
2022/11/06 06:04:41;;;;;;;5.53;4.43;;;;;;;8.35;78.95;100697.38;5013343;28;20235;-78
2022/11/06 06:07:08;;;;;;;7.43;4.20;;;;;;;8.29;79.63;100679.22;5013863;28;20214;-78
2022/11/06 06:09:34;;;;;;;6.57;4.77;;;;;;;8.34;79.24;100672.22;5013001;28;20234;-79
2022/11/06 06:12:02;;;;;;;5.57;5.07;;;;;;;8.29;79.47;100687.00;5013646;28;20213;-79
2022/11/06 06:14:29;;;;;;;8.77;5.13;;;;;;;8.33;79.72;100686.13;5013821;28;20230;-78
2022/11/06 06:16:55;;;;;;;4.60;4.20;;;;;;;8.44;79.66;100688.69;5013526;28;20701;-78
2022/11/06 06:19:21;;;;;;;5.43;4.93;;;;;;;8.45;79.75;100688.66;5014094;28;20218;-78
2022/11/06 06:21:49;;;;;;;6.77;5.10;;;;;;;8.32;80.02;100687.88;5013183;28;20214;-78
2022/11/06 06:24:15;;;;;;;7.33;5.20;;;;;;;8.36;80.15;100665.28;5013340;28;20284;-79
2022/11/06 06:26:42;;;;;;;5.87;5.10;;;;;;;8.31;80.39;100654.06;5013907;28;20732;-78
2022/11/06 06:29:10;;;;;;;5.73;4.87;;;;;;;8.24;80.10;100650.59;5013951;28;20237;-79
2022/11/06 06:31:36;;;;;;;5.50;4.97;;;;;;;8.28;79.93;100654.06;5013094;28;20696;-79
2022/11/06 06:34:03;;;;;;;6.07;4.77;;;;;;;8.34;80.15;100656.63;5013497;28;20244;-78
2022/11/06 06:36:29;;;;;;;5.70;5.00;;;;;;;8.35;80.44;100654.00;5013627;28;20204;-80
2022/11/06 06:38:55;;;;;;;5.33;4.83;;;;;;;8.40;80.27;100656.56;5013959;28;20204;-79
2022/11/06 06:41:22;;;;;;;6.43;4.73;;;;;;;8.44;79.98;100652.25;5014075;28;20222;-79
2022/11/06 06:43:49;;;;;;;5.17;4.60;;;;;;;8.42;80.20;100661.81;5013659;28;20219;-78
2022/11/06 06:46:17;;;;;;;4.93;4.53;;;;;;;8.37;79.83;100663.56;5014062;28;20237;-79
2022/11/06 06:48:43;;;;;;;6.87;4.87;;;;;;;8.26;80.13;100656.66;5014244;28;20266;-78
2022/11/06 06:51:10;;;;;;;5.50;4.57;;;;;;;8.26;80.14;100648.84;5013563;28;20597;-79
2022/11/06 06:53:36;;;;;;;5.33;4.83;;;;;;;8.33;80.35;100641.91;5014102;28;20239;-79
2022/11/06 06:56:03;;;;;;;5.83;5.07;;;;;;;8.37;80.55;100634.94;5014243;28;20214;-79
2022/11/06 06:58:30;;;;;;;7.00;5.20;;;;;;;8.29;80.09;100635.84;5014587;28;20862;-78
2022/11/06 07:00:59;;;;;;;7.93;6.07;;;;;;;8.18;80.97;100635.03;5014856;28;20214;-79
2022/11/06 07:03:27;;;;;;;6.47;5.53;;;;;;;8.24;80.74;100631.53;5015218;28;20238;-80
2022/11/06 07:05:54;;;;;;;10.27;5.73;;;;;;;8.28;80.48;100636.72;5015237;28;20215;-79
2022/11/06 07:08:20;;;;;;;6.27;5.03;;;;;;;8.32;80.20;100646.25;5015434;28;20560;-79
2022/11/06 07:10:47;;;;;;;7.13;5.10;;;;;;;8.08;81.31;100629.03;5014758;28;20207;-79
2022/11/06 07:13:13;;;;;;;5.60;5.10;;;;;;;8.09;81.01;100622.13;5015610;28;20234;-79
2022/11/06 07:15:40;;;;;;;6.23;5.10;;;;;;;8.08;81.86;100608.22;5016216;28;20203;-79
2022/11/06 07:18:07;;;;;;;6.33;4.73;;;;;;;8.20;81.18;100606.44;5018718;28;20249;-80
2022/11/06 07:20:35;;;;;;;6.00;5.30;;;;;;;8.23;81.58;100612.50;5019247;28;20207;-79
2022/11/06 07:23:05;;;;;;;10.53;6.50;;;;;;;8.26;80.61;100620.25;5018954;28;20234;-80
2022/11/06 07:25:31;;;;;;;5.57;4.97;;;;;;;8.29;81.14;100622.84;5019635;28;20210;-79
2022/11/06 07:28:00;;;;;;;5.67;5.10;;;;;;;8.22;80.58;100639.34;5019528;28;20218;-80
2022/11/06 07:30:26;;;;;;;5.23;4.73;;;;;;;8.33;80.60;100628.91;5024550;28;20229;-78
2022/11/06 07:32:53;;;;;;;6.07;4.43;;;;;;;8.42;80.56;100628.84;5025051;28;20222;-79
2022/11/06 07:35:19;;;;;;;5.87;4.77;;;;;;;8.38;80.45;100629.72;5025473;28;20207;-79
2022/11/06 07:37:47;;;;;;;6.57;4.80;;;;;;;8.45;80.55;100628.84;5024573;28;20202;-78
2022/11/06 07:40:14;;;;;;;5.13;4.60;;;;;;;8.47;80.37;100623.63;5023515;28;20211;-79
2022/11/06 07:42:41;;;;;;;6.47;4.60;;;;;;;8.39;80.06;100636.66;5021251;28;20717;-79
2022/11/06 07:45:09;;;;;;;5.80;5.17;;;;;;;8.45;80.42;100635.78;5017373;28;20597;-79
2022/11/06 07:47:35;;;;;;;6.83;5.60;;;;;;;8.47;79.96;100642.69;5015532;28;20241;-78
2022/11/06 07:50:02;;;;;;;5.80;5.10;;;;;;;8.55;79.67;100642.66;5015035;28;20227;-78
2022/11/06 07:52:28;;;;;;;5.10;4.60;;;;;;;8.55;80.60;100634.84;5015005;28;20207;-78
2022/11/06 07:54:56;;;;;;;5.37;4.83;;;;;;;8.60;80.10;100642.59;5014925;28;20218;-79
2022/11/06 07:57:22;;;;;;;5.03;4.63;;;;;;;8.56;80.92;100639.16;5015197;28;20214;-78
2022/11/06 07:59:49;;;;;;;5.10;4.63;;;;;;;8.60;80.22;100643.47;5015428;28;20625;-77
2022/11/06 08:02:16;;;;;;;5.07;4.57;;;;;;;8.62;80.75;100631.34;5015246;28;20586;-79
2022/11/06 08:04:43;;;;;;;7.00;4.80;;;;;;;8.62;80.81;100620.91;5015080;28;20312;-78
2022/11/06 08:07:09;;;;;;;6.97;4.90;;;;;;;8.70;80.44;100623.44;5014743;28;20225;-78
2022/11/06 08:09:36;;;;;;;8.50;4.70;;;;;;;8.63;80.35;100627.84;5014759;28;20314;-80
2022/11/06 08:12:04;;;;;;;4.60;4.20;;;;;;;8.61;80.81;100626.97;5019142;28;20211;-81
2022/11/06 08:14:30;;;;;;;5.87;5.30;;;;;;;8.64;80.49;100634.78;5019328;28;20227;-81
2022/11/06 08:16:57;;;;;;;5.53;4.53;;;;;;;8.68;80.34;100633.00;5016961;28;20216;-80
2022/11/06 08:19:24;;;;;;;6.13;5.30;;;;;;;8.57;81.06;100629.63;5018244;28;20682;-80
2022/11/06 08:21:51;;;;;;;5.43;4.90;;;;;;;8.58;80.78;100620.94;5016925;28;20206;-81
2022/11/06 08:24:17;;;;;;;7.90;4.90;;;;;;;8.59;81.07;100626.13;5016972;28;20237;-81
2022/11/06 08:26:43;;;;;;;6.53;5.07;;;;;;;8.53;81.10;100619.25;5016385;28;20632;-81
2022/11/06 08:29:11;;;;;;;5.20;4.70;;;;;;;8.56;81.79;100605.34;5016437;28;20223;-80
2022/11/06 08:31:38;;;;;;;4.47;4.17;;;;;;;8.60;81.00;100604.44;5016214;28;20206;-80
2022/11/06 08:34:05;;;;;;;4.93;4.43;;;;;;;8.57;81.62;100599.28;5016911;28;20242;-80
2022/11/06 08:36:35;;;;;;;6.03;4.87;;;;;;;8.67;81.33;100595.72;5017069;28;20208;-80
2022/11/06 08:39:01;;;;;;;5.30;4.60;;;;;;;8.67;81.58;100592.25;5017165;28;20207;-80
2022/11/06 08:41:28;;;;;;;4.63;4.23;;;;;;;8.66;81.76;100601.81;5016413;28;20206;-81
2022/11/06 08:43:54;;;;;;;7.60;4.57;;;;;;;8.71;81.47;100601.75;5016238;28;20219;-79
2022/11/06 08:46:22;;;;;;;6.27;4.63;;;;;;;8.78;81.58;100599.94;5016043;28;20229;-81
2022/11/06 08:48:48;;;;;;;5.17;4.33;;;;;;;8.78;81.30;100602.56;5016408;28;20202;-80
2022/11/06 08:51:15;;;;;;;5.23;4.67;;;;;;;8.87;80.71;100600.72;5016444;28;20203;-80
2022/11/06 08:53:41;;;;;;;4.70;4.30;;;;;;;8.84;80.81;100600.78;5016135;28;20277;-80
2022/11/06 08:56:08;;;;;;;5.07;3.97;;;;;;;8.96;80.68;100599.81;5015379;28;20465;-79
2022/11/06 08:58:35;;;;;;;5.17;4.33;;;;;;;9.02;80.06;100612.75;5015422;28;20582;-81
2022/11/06 09:01:01;;;;;;;4.63;4.10;;;;;;;9.02;80.37;100614.47;5015886;28;20195;-80
2022/11/06 09:03:29;;;;;;;4.70;4.27;;;;;;;9.16;79.96;100623.03;5015967;28;20229;-80
2022/11/06 09:05:55;;;;;;;4.37;3.97;;;;;;;9.05;79.64;100650.91;5017028;28;20210;-80
2022/11/06 09:08:23;;;;;;;5.33;3.97;;;;;;;9.14;79.49;100635.22;5015752;28;20199;-80
2022/11/06 09:10:50;;;;;;;4.67;4.27;;;;;;;9.02;79.80;100643.09;5015356;28;20237;-80
2022/11/06 09:13:16;;;;;;;7.13;4.27;;;;;;;9.00;79.55;100640.53;5016153;28;20241;-81
2022/11/06 09:15:43;;;;;;;4.47;3.93;;;;;;;9.05;79.56;100643.94;5018202;28;20207;-79
2022/11/06 09:18:10;;;;;;;5.53;4.27;;;;;;;9.07;80.28;100630.94;5014948;28;20213;-80
2022/11/06 09:20:38;;;;;;;4.40;4.00;;;;;;;9.00;80.13;100627.53;5015588;28;20208;-81
2022/11/06 09:23:07;;;;;;;5.70;4.13;;;;;;;9.06;80.10;100627.47;5014660;28;20704;-79
2022/11/06 09:25:34;;;;;;;5.40;3.57;;;;;;;9.13;80.01;100623.91;5014937;28;20216;-79
2022/11/06 09:28:01;;;;;;;4.17;3.87;;;;;;;8.95;79.33;100648.38;5015099;28;20199;-80
2022/11/06 09:30:29;;;;;;;3.63;3.33;;;;;;;8.96;79.63;100646.66;5014886;28;20219;-80
2022/11/06 09:32:57;;;;;;;5.27;3.97;;;;;;;9.03;79.70;100643.09;5015384;28;20222;-80
2022/11/06 09:35:25;;;;;;;3.60;3.30;;;;;;;9.02;80.63;100630.09;5012430;28;20209;-80
2022/11/06 09:37:53;;;;;;;4.20;3.80;;;;;;;9.27;83.30;100537.81;5014654;28;20671;-79
2022/11/06 09:40:21;;;;;;;3.83;3.53;;;;;;;9.39;82.73;100526.38;5015519;28;20195;-78
2022/11/06 09:43:02;;;;;;;4.33;3.90;;;;;;;9.45;80.33;100549.75;5018429;28;20199;-80
2022/11/06 09:45:31;;;;;;;3.47;3.17;;;;;;;9.48;79.26;100585.34;5015948;28;20202;-80
2022/11/06 09:48:03;;;;;;;4.83;3.50;;;;;;;9.42;79.17;100612.31;5016956;28;20298;-81
2022/11/06 09:50:34;;;;;;;5.63;3.47;;;;;;;9.42;78.91;100630.56;5017047;28;20274;-80
2022/11/06 09:53:08;;;;;;;3.77;3.43;;;;;;;9.45;78.86;100640.94;5017145;28;20222;-80
2022/11/06 09:55:38;;;;;;;3.57;3.27;;;;;;;9.37;78.86;100654.94;5017931;28;20207;-81
2022/11/06 09:58:13;;;;;;;3.83;3.50;;;;;;;9.45;79.05;100645.28;5016064;28;20257;-82
2022/11/06 10:00:40;;;;;;;4.10;3.27;;;;;;;9.40;78.99;100653.16;5016497;28;20192;-81
2022/11/06 10:03:13;;;;;;;2.90;2.70;;;;;;;9.47;79.45;100628.75;5017004;28;20235;-80
2022/11/06 10:05:42;;;;;;;4.93;3.20;;;;;;;9.46;78.97;100634.84;5017263;28;20209;-80
2022/11/06 10:08:16;;;;;;;4.10;3.07;;;;;;;9.55;80.04;100626.06;5016989;28;20204;-81
2022/11/06 10:10:50;;;;;;;3.00;2.73;;;;;;;9.60;79.06;100633.84;5013931;28;20222;-81
2022/11/06 10:13:29;;;;;;;5.07;2.87;;;;;;;9.62;79.35;100630.34;5017097;28;20235;-80
2022/11/06 10:16:02;;;;;;;4.17;3.10;;;;;;;9.67;78.76;100652.00;5016620;28;20206;-82
2022/11/06 10:18:39;;;;;;;5.33;3.93;;;;;;;9.69;77.63;100668.47;5015410;28;20202;-80
2022/11/06 10:21:10;;;;;;;3.40;2.73;;;;;;;9.70;77.51;100674.56;5014681;28;20202;-81
2022/11/06 10:23:46;;;;;;;4.33;2.87;;;;;;;9.74;77.24;100705.78;4321339;28;10000831;-80
2022/11/06 10:26:16;;;;;;;4.67;3.17;;;;;;;9.73;76.65;100714.50;5012787;28;20210;-80
2022/11/06 10:28:59;;;;;;;3.53;2.90;;;;;;;9.78;76.72;100726.59;5015655;28;20228;-81
2022/11/06 10:31:33;;;;;;;4.57;3.53;;;;;;;9.83;76.67;100720.47;5014448;28;20609;-81
2022/11/06 10:34:08;;;;;;;2.93;2.67;;;;;;;9.86;76.43;100716.94;5015059;28;20227;-82
2022/11/06 10:36:39;;;;;;;3.47;2.77;;;;;;;9.83;75.67;100745.66;5016040;28;20866;-79
2022/11/06 10:39:15;;;;;;;3.43;3.13;;;;;;;9.83;75.33;100750.88;5015238;28;20349;-80
2022/11/06 10:41:46;;;;;;;3.47;2.70;;;;;;;9.87;75.79;100749.94;5014475;28;20213;-81
2022/11/06 10:44:19;;;;;;;3.47;2.60;;;;;;;9.92;75.70;100749.03;5015338;28;20233;-80
2022/11/06 10:46:49;;;;;;;2.97;2.47;;;;;;;9.96;75.82;100749.00;5015830;28;20561;-81
2022/11/06 10:49:24;;;;;;;2.60;2.40;;;;;;;9.98;75.48;100742.03;5015185;28;20212;-81
2022/11/06 10:52:19;;;;;;;3.00;2.60;;;;;;;10.00;74.17;100785.44;5018174;28;20212;-80
2022/11/06 10:55:15;;;;;;;3.03;2.50;;;;;;;10.01;73.28;100784.59;5018601;28;20247;-81
2022/11/06 10:57:49;;;;;;;3.60;2.50;;;;;;;10.04;73.57;100794.97;5018055;28;20214;-81
2022/11/06 11:00:16;;;;;;;3.37;2.30;;;;;;;10.14;73.71;100793.97;5015942;28;20243;-79
2022/11/06 11:02:46;;;;;;;3.03;2.77;;;;;;;10.10;72.56;100810.53;5017960;28;20206;-80
2022/11/06 11:05:14;;;;;;;4.33;2.60;;;;;;;10.13;72.33;100831.38;5017628;28;20212;-80
2022/11/06 11:07:42;;;;;;;5.63;2.70;;;;;;;10.18;72.38;100823.50;5017925;28;20215;-81
2022/11/06 11:10:28;;;;;;;2.70;2.40;;;;;;;10.23;72.84;100826.09;5017030;28;20224;-81
2022/11/06 11:12:57;;;;;;;4.30;2.20;;;;;;;10.19;71.78;100821.75;5017584;28;20743;-81
2022/11/06 11:15:26;;;;;;;2.80;2.50;;;;;;;10.26;71.60;100845.16;5017251;28;20210;-79
2022/11/06 11:18:17;;;;;;;3.43;2.40;;;;;;;10.29;71.61;100852.09;5016912;28;20689;-80
2022/11/06 11:20:46;;;;;;;3.53;2.10;;;;;;;10.34;70.29;100837.28;5012322;28;20995;-80
2022/11/06 11:23:15;;;;;;;3.57;2.00;;;;;;;10.42;70.57;100851.09;5017036;28;20319;-81
2022/11/06 11:25:46;;;;;;;3.30;2.10;;;;;;;10.45;68.47;100894.59;5017016;28;20305;-81
2022/11/06 11:28:24;;;;;;;2.30;2.10;;;;;;;10.52;68.20;100912.78;5016152;28;20691;-81
2022/11/06 11:30:53;;;;;;;2.67;2.10;;;;;;;10.58;68.43;100926.63;5016851;28;20230;-80
2022/11/06 11:33:22;;;;;;;3.33;2.33;;;;;;;10.59;67.58;100936.19;5016537;28;20739;-78
2022/11/06 11:35:50;;;;;;;2.17;1.90;;;;;;;10.63;67.25;100962.25;5016348;28;20209;-79
2022/11/06 11:38:20;;;;;;;2.20;1.70;;;;;;;10.66;67.63;100959.59;5016106;28;20234;-80
2022/11/06 11:40:50;;;;;;;6.93;6.20;;;;;;;10.67;66.74;100978.75;5015239;28;20212;-80
2022/11/06 11:43:25;;;;;;;2.10;1.93;;;;;;;10.72;66.53;100993.47;5015073;28;20318;-81
2022/11/06 11:46:20;;;;;;;1.83;1.63;;;;;;;10.72;67.88;100962.16;5015158;28;20607;-81
2022/11/06 11:48:48;;;;;;;3.43;1.70;;;;;;;10.71;67.34;100943.88;4969810;28;20214;-80
2022/11/06 11:51:36;;;;;;;3.07;2.00;;;;;;;10.80;67.38;100932.44;5014519;28;20717;-80
2022/11/06 11:54:06;;;;;;;3.73;2.00;;;;;;;10.79;66.98;100922.91;5008573;28;20252;-78
2022/11/06 11:56:43;;;;;;;2.97;1.80;;;;;;;10.89;67.36;100907.09;5014304;28;20659;-79